createdAt,value
2022-07-26T00:00:50.627Z,27.06
2022-07-26T00:03:17.900Z,27.06
2022-07-26T00:05:45.056Z,27.05
2022-07-26T00:08:12.448Z,27.04
2022-07-26T00:10:45.263Z,27.02
2022-07-26T00:13:13.589Z,27.02
2022-07-26T00:15:40.857Z,27.00
2022-07-26T00:18:12.062Z,27.04
2022-07-26T00:20:40.021Z,27.03
2022-07-26T00:23:08.697Z,27.01
2022-07-26T00:25:35.969Z,26.98
2022-07-26T00:28:03.300Z,26.98
2022-07-26T00:30:30.771Z,26.95
2022-07-26T00:32:58.012Z,26.93
2022-07-26T00:35:25.306Z,26.91
2022-07-26T00:37:52.987Z,26.89
2022-07-26T00:40:20.088Z,26.85
2022-07-26T00:42:47.423Z,26.83
2022-07-26T00:45:15.420Z,26.80
2022-07-26T00:47:42.662Z,26.78
2022-07-26T00:50:13.813Z,26.76
2022-07-26T00:52:49.380Z,26.73
2022-07-26T00:55:18.223Z,26.71
2022-07-26T00:57:45.993Z,26.69
2022-07-26T01:00:17.964Z,26.68
2022-07-26T01:02:45.902Z,26.66
2022-07-26T01:05:13.270Z,26.63
2022-07-26T01:07:41.149Z,26.61
2022-07-26T01:10:12.694Z,26.59
2022-07-26T01:12:41.294Z,26.61
2022-07-26T01:15:09.929Z,26.63
2022-07-26T01:17:38.241Z,26.61
2022-07-26T01:20:08.686Z,26.59
2022-07-26T01:22:35.974Z,26.56
2022-07-26T01:25:03.229Z,26.55
2022-07-26T01:27:33.939Z,26.55
2022-07-26T01:30:01.337Z,26.57
2022-07-26T01:32:28.579Z,26.58
2022-07-26T01:34:55.620Z,26.55
2022-07-26T01:37:22.671Z,26.52
2022-07-26T01:39:49.843Z,26.53
2022-07-26T01:42:16.917Z,26.56
2022-07-26T01:44:44.122Z,26.55
2022-07-26T01:47:11.158Z,26.53
2022-07-26T01:49:38.332Z,26.51
2022-07-26T01:52:05.779Z,26.49
2022-07-26T01:54:32.890Z,26.47
2022-07-26T01:56:59.921Z,26.44
2022-07-26T01:59:27.093Z,26.44
2022-07-26T02:01:54.335Z,26.43
2022-07-26T02:04:39.890Z,26.42
2022-07-26T02:07:10.783Z,26.40
2022-07-26T02:09:40.583Z,26.38
2022-07-26T02:12:07.984Z,26.36
2022-07-26T02:14:35.105Z,26.34
2022-07-26T02:17:02.314Z,26.33
2022-07-26T02:19:30.004Z,26.31
2022-07-26T02:21:57.323Z,26.32
2022-07-26T02:24:24.601Z,26.32
2022-07-26T02:26:52.001Z,26.30
2022-07-26T02:29:19.182Z,26.29
2022-07-26T02:31:48.506Z,26.29
2022-07-26T02:34:16.764Z,26.27
2022-07-26T02:36:44.112Z,26.26
2022-07-26T02:39:11.514Z,26.24
2022-07-26T02:41:39.099Z,26.23
2022-07-26T02:44:07.394Z,26.21
2022-07-26T02:46:35.272Z,26.19
2022-07-26T02:49:02.440Z,26.17
2022-07-26T02:51:29.716Z,26.16
2022-07-26T02:53:56.858Z,26.16
2022-07-26T02:56:24.015Z,26.15
2022-07-26T02:58:51.250Z,26.15
2022-07-26T03:01:18.479Z,26.13
2022-07-26T03:03:50.400Z,26.15
2022-07-26T03:06:19.209Z,26.15
2022-07-26T03:08:47.303Z,26.11
2022-07-26T03:11:14.574Z,26.11
2022-07-26T03:13:41.699Z,26.08
2022-07-26T03:16:09.202Z,26.05
2022-07-26T03:18:36.411Z,26.05
2022-07-26T03:21:03.927Z,26.03
2022-07-26T03:23:33.753Z,26.02
2022-07-26T03:26:02.602Z,26.03
2022-07-26T03:28:33.898Z,26.02
2022-07-26T03:31:01.655Z,26.01
2022-07-26T03:33:30.506Z,26.01
2022-07-26T03:35:57.700Z,26.02
2022-07-26T03:38:24.901Z,26.04
2022-07-26T03:40:52.618Z,26.05
2022-07-26T03:43:23.029Z,26.05
2022-07-26T03:45:51.239Z,26.06
2022-07-26T03:48:21.999Z,26.09
2022-07-26T03:50:49.021Z,26.10
2022-07-26T03:53:16.089Z,26.11
2022-07-26T03:56:01.644Z,26.07
2022-07-26T03:58:28.911Z,26.09
2022-07-26T04:00:56.138Z,26.08
2022-07-26T04:03:23.389Z,26.07
2022-07-26T04:05:50.591Z,26.07
2022-07-26T04:08:20.164Z,26.09
2022-07-26T04:10:53.890Z,26.10
2022-07-26T04:13:21.229Z,26.12
2022-07-26T04:15:48.352Z,26.16
2022-07-26T04:18:15.734Z,26.19
2022-07-26T04:20:43.508Z,26.24
2022-07-26T04:23:11.819Z,26.28
2022-07-26T04:25:41.535Z,26.35
2022-07-26T04:28:10.043Z,26.38
2022-07-26T04:30:37.590Z,26.44
2022-07-26T04:33:05.649Z,26.51
2022-07-26T04:35:33.447Z,26.59
2022-07-26T04:38:02.562Z,26.67
2022-07-26T04:40:33.679Z,26.74
2022-07-26T04:43:02.369Z,26.82
2022-07-26T04:45:30.270Z,26.89
2022-07-26T04:47:58.460Z,26.98
2022-07-26T04:50:28.202Z,27.04
2022-07-26T04:52:55.787Z,27.16
2022-07-26T04:55:23.839Z,27.26
2022-07-26T04:57:51.842Z,27.35
2022-07-26T05:00:24.228Z,27.45
2022-07-26T05:02:57.977Z,27.56
2022-07-26T05:05:27.386Z,27.70
2022-07-26T05:07:56.605Z,28.01
2022-07-26T05:10:34.081Z,28.40
2022-07-26T05:13:04.097Z,28.48
2022-07-26T05:15:35.542Z,28.54
2022-07-26T05:18:10.963Z,28.61
2022-07-26T05:20:41.012Z,28.68
2022-07-26T05:23:08.216Z,28.70
2022-07-26T05:25:36.725Z,28.82
2022-07-26T05:28:04.417Z,28.75
2022-07-26T05:30:31.688Z,28.99
2022-07-26T05:32:58.944Z,29.45
2022-07-26T05:35:26.067Z,30.41
2022-07-26T05:37:53.219Z,31.26
2022-07-26T05:40:20.512Z,32.65
2022-07-26T05:42:47.577Z,34.20
2022-07-26T05:45:14.811Z,34.96
2022-07-26T05:47:41.955Z,35.71
2022-07-26T05:50:09.514Z,36.40
2022-07-26T05:52:36.745Z,36.15
2022-07-26T05:55:04.166Z,35.32
2022-07-26T05:57:31.407Z,34.43
2022-07-26T05:59:58.458Z,34.87
2022-07-26T06:02:25.648Z,35.57
2022-07-26T06:04:52.982Z,36.20
2022-07-26T06:07:20.214Z,36.70
2022-07-26T06:09:47.337Z,36.82
2022-07-26T06:12:14.538Z,36.95
2022-07-26T06:14:41.674Z,37.77
2022-07-26T06:17:09.118Z,38.56
2022-07-26T06:19:36.250Z,38.03
2022-07-26T06:22:04.220Z,38.00
2022-07-26T06:24:31.675Z,37.63
2022-07-26T06:27:04.945Z,37.90
2022-07-26T06:29:33.412Z,37.60
2022-07-26T06:32:00.880Z,38.86
2022-07-26T06:34:28.371Z,39.77
2022-07-26T06:36:55.661Z,39.89
2022-07-26T06:39:22.910Z,39.33
2022-07-26T06:41:50.258Z,38.15
2022-07-26T06:44:23.018Z,37.67
2022-07-26T06:46:50.362Z,36.92
2022-07-26T06:49:21.959Z,36.52
2022-07-26T06:51:49.667Z,36.13
2022-07-26T06:54:16.825Z,35.63
2022-07-26T06:56:44.117Z,36.05
2022-07-26T06:59:11.242Z,35.93
2022-07-26T07:01:51.725Z,35.97
2022-07-26T07:04:25.650Z,36.16
2022-07-26T07:06:52.755Z,36.36
2022-07-26T07:09:20.087Z,36.31
2022-07-26T07:11:53.696Z,36.01
2022-07-26T07:14:25.892Z,35.63
2022-07-26T07:16:53.219Z,35.35
2022-07-26T07:19:20.415Z,35.00
2022-07-26T07:21:47.500Z,35.47
2022-07-26T07:24:14.890Z,36.02
2022-07-26T07:26:42.384Z,36.61
2022-07-26T07:29:15.509Z,37.15
2022-07-26T07:31:48.001Z,37.25
2022-07-26T07:34:19.677Z,37.32
2022-07-26T07:36:47.159Z,37.06
2022-07-26T07:39:17.454Z,36.46
2022-07-26T07:41:47.235Z,36.88
2022-07-26T07:44:14.838Z,36.12
2022-07-26T07:46:42.174Z,35.89
2022-07-26T07:49:11.106Z,36.28
2022-07-26T07:51:38.835Z,36.02
2022-07-26T07:54:06.408Z,35.93
2022-07-26T07:56:34.778Z,36.04
2022-07-26T07:59:02.138Z,35.91
2022-07-26T08:01:40.312Z,36.42
2022-07-26T08:04:09.710Z,36.55
2022-07-26T08:06:37.142Z,36.65
2022-07-26T08:09:06.388Z,36.08
2022-07-26T08:11:34.319Z,35.81
2022-07-26T08:14:02.331Z,35.60
2022-07-26T08:16:29.694Z,35.47
2022-07-26T08:18:58.374Z,35.31
2022-07-26T08:21:29.095Z,35.02
2022-07-26T08:23:57.546Z,34.85
2022-07-26T08:26:25.104Z,34.90
2022-07-26T08:28:59.856Z,34.78
2022-07-26T08:31:29.115Z,34.62
2022-07-26T08:33:56.597Z,34.54
2022-07-26T08:36:26.178Z,34.57
2022-07-26T08:38:58.263Z,34.54
2022-07-26T08:41:25.361Z,34.30
2022-07-26T08:43:53.755Z,34.30
2022-07-26T08:46:26.535Z,34.32
2022-07-26T08:48:56.936Z,34.33
2022-07-26T08:51:25.790Z,34.36
2022-07-26T08:54:03.741Z,34.14
2022-07-26T08:56:34.395Z,34.22
2022-07-26T08:59:17.177Z,33.66
2022-07-26T09:02:00.071Z,33.65
2022-07-26T09:04:35.378Z,33.37
2022-07-26T09:07:19.247Z,32.96
2022-07-26T09:09:55.548Z,33.24
2022-07-26T09:12:24.374Z,33.32
2022-07-26T09:14:51.866Z,33.03
2022-07-26T09:17:21.145Z,32.79
2022-07-26T09:20:13.265Z,32.56
2022-07-26T09:22:58.718Z,32.65
2022-07-26T09:25:27.298Z,32.63
2022-07-26T09:27:54.837Z,32.28
2022-07-26T09:30:22.273Z,31.90
2022-07-26T09:33:03.231Z,31.72
2022-07-26T09:35:50.939Z,31.53
2022-07-26T09:38:19.484Z,31.60
2022-07-26T09:40:50.600Z,31.59
2022-07-26T09:43:24.202Z,31.41
2022-07-26T09:46:06.280Z,31.54
2022-07-26T09:48:59.341Z,31.33
2022-07-26T09:51:42.152Z,31.09
2022-07-26T09:54:11.590Z,31.16
2022-07-26T09:56:57.609Z,31.29
2022-07-26T09:59:26.235Z,31.31
2022-07-26T10:01:54.900Z,31.39
2022-07-26T10:04:22.235Z,31.49
2022-07-26T10:06:49.719Z,31.54
2022-07-26T10:09:18.733Z,31.66
2022-07-26T10:11:57.367Z,31.60
2022-07-26T10:14:33.790Z,31.57
2022-07-26T10:17:21.904Z,31.72
2022-07-26T10:20:03.803Z,31.89
2022-07-26T10:22:31.387Z,31.90
2022-07-26T10:25:18.376Z,31.87
2022-07-26T10:27:47.453Z,31.79
2022-07-26T10:30:17.747Z,31.93
2022-07-26T10:32:59.851Z,31.79
2022-07-26T10:35:30.294Z,31.69
2022-07-26T10:37:59.789Z,32.02
2022-07-26T10:40:30.368Z,31.98
2022-07-26T10:43:39.408Z,31.92
2022-07-26T10:46:18.109Z,32.15
2022-07-26T10:49:09.023Z,32.18
2022-07-26T10:51:41.175Z,32.04
2022-07-26T10:54:14.087Z,31.79
2022-07-26T10:56:41.576Z,31.88
2022-07-26T10:59:08.842Z,32.10
2022-07-26T11:01:38.733Z,32.07
2022-07-26T11:04:07.578Z,31.98
2022-07-26T11:06:35.044Z,32.00
2022-07-26T11:09:11.164Z,32.04
2022-07-26T11:11:38.819Z,32.15
2022-07-26T11:14:11.617Z,32.16
2022-07-26T11:16:50.230Z,32.12
2022-07-26T11:19:20.233Z,32.26
2022-07-26T11:21:55.577Z,32.41
2022-07-26T11:24:23.010Z,32.43
2022-07-26T11:26:50.551Z,32.48
2022-07-26T11:29:35.636Z,32.45
2022-07-26T11:32:17.729Z,32.43
2022-07-26T11:34:46.176Z,32.51
2022-07-26T11:37:13.844Z,32.53
2022-07-26T11:39:41.302Z,32.58
2022-07-26T11:42:19.804Z,32.63
2022-07-26T11:44:48.587Z,32.43
2022-07-26T11:47:24.399Z,32.60
2022-07-26T11:52:41.235Z,32.98
2022-07-26T11:55:09.109Z,32.89
2022-07-26T11:57:36.350Z,32.98
2022-07-26T12:00:04.777Z,32.93
2022-07-26T12:02:40.892Z,32.97
2022-07-26T12:05:20.294Z,32.90
2022-07-26T12:08:05.413Z,32.83
2022-07-26T12:10:33.041Z,32.90
2022-07-26T12:13:08.002Z,33.05
2022-07-26T12:15:49.596Z,32.98
2022-07-26T12:18:50.963Z,32.83
2022-07-26T12:21:18.073Z,32.84
2022-07-26T12:23:49.037Z,32.74
2022-07-26T12:26:29.424Z,32.71
2022-07-26T12:28:58.448Z,32.62
2022-07-26T12:31:27.440Z,32.86
2022-07-26T12:33:55.305Z,32.95
2022-07-26T12:36:28.018Z,32.90
2022-07-26T12:39:00.599Z,33.18
2022-07-26T12:41:39.592Z,33.32
2022-07-26T12:44:08.765Z,33.50
2022-07-26T12:46:36.654Z,33.47
2022-07-26T12:49:05.333Z,33.36
2022-07-26T12:51:33.094Z,33.22
2022-07-26T12:54:00.355Z,33.15
2022-07-26T12:56:30.651Z,33.05
2022-07-26T12:59:01.761Z,33.15
2022-07-26T13:01:30.336Z,33.13
2022-07-26T13:03:57.711Z,33.12
2022-07-26T13:06:25.010Z,33.25
2022-07-26T13:08:56.760Z,33.24
2022-07-26T13:11:24.224Z,33.04
2022-07-26T13:13:51.493Z,33.04
2022-07-26T13:16:18.778Z,33.13
2022-07-26T13:18:47.920Z,33.26
2022-07-26T13:21:15.063Z,33.28
2022-07-26T13:23:44.548Z,33.13
2022-07-26T13:26:14.164Z,33.05
2022-07-26T13:28:41.889Z,33.01
2022-07-26T13:31:09.466Z,33.08
2022-07-26T13:33:39.463Z,32.90
2022-07-26T13:36:07.055Z,32.59
2022-07-26T13:38:34.263Z,32.32
2022-07-26T13:41:03.554Z,32.13
2022-07-26T13:43:33.360Z,32.02
2022-07-26T13:46:00.652Z,31.88
2022-07-26T13:48:30.029Z,31.89
2022-07-26T13:50:57.891Z,31.88
2022-07-26T13:53:25.311Z,32.06
2022-07-26T13:55:52.585Z,32.17
2022-07-26T13:58:21.861Z,32.15
2022-07-26T14:00:49.487Z,32.26
2022-07-26T14:03:17.056Z,32.14
2022-07-26T14:05:44.274Z,31.97
2022-07-26T14:08:11.748Z,31.73
2022-07-26T14:10:40.183Z,31.70
2022-07-26T14:13:08.512Z,31.64
2022-07-26T14:15:36.482Z,31.40
2022-07-26T14:18:04.198Z,31.42
2022-07-26T14:20:31.353Z,31.49
2022-07-26T14:22:58.429Z,31.61
2022-07-26T14:25:27.856Z,31.77
2022-07-26T14:27:55.603Z,31.83
2022-07-26T14:30:23.504Z,31.81
2022-07-26T14:32:51.201Z,31.77
2022-07-26T14:35:18.469Z,31.88
2022-07-26T14:37:46.218Z,31.88
2022-07-26T14:40:16.156Z,31.84
2022-07-26T14:42:43.867Z,31.85
2022-07-26T14:45:12.682Z,31.86
2022-07-26T14:47:40.482Z,31.82
2022-07-26T14:50:09.302Z,31.89
2022-07-26T14:52:42.534Z,31.80
2022-07-26T14:55:10.251Z,31.84
2022-07-26T14:57:39.103Z,31.71
2022-07-26T15:00:13.151Z,31.69
2022-07-26T15:02:45.771Z,31.63
2022-07-26T15:05:14.418Z,31.63
2022-07-26T15:07:42.282Z,31.51
2022-07-26T15:10:12.209Z,31.63
2022-07-26T15:12:39.908Z,31.64
2022-07-26T15:15:07.946Z,31.48
2022-07-26T15:17:36.142Z,31.48
2022-07-26T15:20:04.206Z,31.52
2022-07-26T15:22:31.532Z,31.33
2022-07-26T15:24:58.772Z,30.96
2022-07-26T15:27:26.034Z,30.61
2022-07-26T15:29:53.154Z,30.41
2022-07-26T15:32:21.497Z,30.22
2022-07-26T15:34:49.033Z,30.20
2022-07-26T15:37:16.563Z,30.13
2022-07-26T15:39:43.693Z,30.08
2022-07-26T15:42:11.041Z,30.00
2022-07-26T15:44:42.884Z,29.97
2022-07-26T15:47:11.015Z,29.97
2022-07-26T15:49:40.165Z,29.84
2022-07-26T15:52:12.996Z,29.81
2022-07-26T15:54:42.503Z,29.75
2022-07-26T15:57:09.796Z,29.67
2022-07-26T15:59:36.973Z,29.67
2022-07-26T16:02:06.186Z,29.48
2022-07-26T16:04:33.707Z,29.27
2022-07-26T16:07:01.008Z,29.26
2022-07-26T16:09:28.417Z,29.22
2022-07-26T16:11:56.756Z,29.13
2022-07-26T16:14:23.903Z,29.10
2022-07-26T16:16:51.273Z,29.18
2022-07-26T16:19:18.438Z,29.26
2022-07-26T16:21:45.653Z,29.22
2022-07-26T16:24:13.156Z,29.23
2022-07-26T16:26:40.992Z,29.23
2022-07-26T16:29:09.056Z,29.18
2022-07-26T16:31:37.332Z,29.09
2022-07-26T16:34:04.642Z,29.01
2022-07-26T16:36:31.928Z,28.99
2022-07-26T16:38:59.207Z,28.94
2022-07-26T16:41:26.357Z,28.87
2022-07-26T16:43:53.583Z,28.79
2022-07-26T16:46:21.076Z,28.62
2022-07-26T16:48:48.564Z,28.52
2022-07-26T16:51:16.845Z,28.48
2022-07-26T16:53:44.596Z,28.43
2022-07-26T16:56:11.757Z,28.43
2022-07-26T16:58:38.947Z,28.42
2022-07-26T17:01:06.263Z,28.45
2022-07-26T17:03:33.379Z,28.53
2022-07-26T17:06:06.503Z,28.50
2022-07-26T17:08:34.194Z,28.46
2022-07-26T17:11:01.631Z,28.48
2022-07-26T17:13:28.792Z,28.41
2022-07-26T17:15:56.052Z,28.38
2022-07-26T17:18:23.219Z,28.39
2022-07-26T17:20:50.482Z,28.45
2022-07-26T17:23:18.727Z,28.49
2022-07-26T17:25:46.299Z,28.55
2022-07-26T17:28:13.953Z,28.52
2022-07-26T17:30:41.155Z,28.51
2022-07-26T17:33:08.312Z,28.54
2022-07-26T17:35:35.758Z,28.50
2022-07-26T17:38:02.963Z,28.48
2022-07-26T17:40:31.893Z,28.44
2022-07-26T17:42:59.899Z,28.42
2022-07-26T17:45:27.080Z,28.28
2022-07-26T17:47:54.205Z,28.10
2022-07-26T17:50:38.226Z,27.99
2022-07-26T17:53:06.071Z,27.96
2022-07-26T17:55:34.158Z,27.94
2022-07-26T17:58:01.519Z,27.90
2022-07-26T18:00:29.366Z,27.88
2022-07-26T18:02:57.886Z,27.83
2022-07-26T18:05:33.013Z,27.79
2022-07-26T18:08:02.248Z,27.75
2022-07-26T18:10:29.534Z,27.71
2022-07-26T18:12:56.611Z,27.66
2022-07-26T18:15:23.961Z,27.61
2022-07-26T18:17:51.058Z,27.64
2022-07-26T18:20:18.248Z,27.66
2022-07-26T18:22:50.361Z,27.65
2022-07-26T18:25:17.937Z,27.62
2022-07-26T18:27:45.241Z,27.59
2022-07-26T18:30:12.517Z,27.57
2022-07-26T18:32:39.746Z,27.54
2022-07-26T18:35:07.314Z,27.58
2022-07-26T18:37:34.601Z,27.59
2022-07-26T18:40:02.228Z,27.59
2022-07-26T18:42:29.519Z,27.59
2022-07-26T18:44:56.919Z,27.57
2022-07-26T18:47:24.274Z,27.52
2022-07-26T18:49:51.582Z,27.58
2022-07-26T18:52:28.943Z,27.58
2022-07-26T18:55:02.426Z,27.58
2022-07-26T18:57:29.684Z,27.56
2022-07-26T18:59:56.777Z,27.55
2022-07-26T19:02:23.908Z,27.64
2022-07-26T19:04:51.151Z,27.67
2022-07-26T19:07:18.439Z,27.63
2022-07-26T19:09:45.531Z,27.63
2022-07-26T19:12:12.639Z,27.66
2022-07-26T19:14:39.741Z,27.71
2022-07-26T19:17:10.095Z,27.69
2022-07-26T19:19:38.795Z,27.70
2022-07-26T19:22:06.020Z,27.68
2022-07-26T19:24:41.741Z,27.68
2022-07-26T19:27:09.757Z,27.66
2022-07-26T19:29:38.172Z,27.65
2022-07-26T19:32:05.936Z,27.63
2022-07-26T19:34:33.110Z,27.62
2022-07-26T19:37:00.510Z,27.62
2022-07-26T19:39:27.650Z,27.63
2022-07-26T19:41:55.010Z,27.62
2022-07-26T19:44:22.162Z,27.63
2022-07-26T19:46:52.993Z,27.56
2022-07-26T19:49:22.927Z,27.51
2022-07-26T19:51:50.469Z,27.50
2022-07-26T19:54:17.669Z,27.52
2022-07-26T19:56:46.530Z,27.50
2022-07-26T19:59:16.878Z,27.50
2022-07-26T20:01:50.037Z,27.58
2022-07-26T20:04:18.692Z,27.58
2022-07-26T20:06:46.302Z,27.56
2022-07-26T20:09:14.122Z,27.57
2022-07-26T20:11:43.206Z,27.59
2022-07-26T20:14:10.406Z,27.62
2022-07-26T20:16:37.738Z,27.64
2022-07-26T20:19:05.007Z,27.65
2022-07-26T20:21:32.241Z,27.71
2022-07-26T20:23:59.375Z,27.71
2022-07-26T20:26:26.544Z,27.69
2022-07-26T20:28:55.401Z,27.66
2022-07-26T20:31:22.803Z,27.64
2022-07-26T20:33:49.996Z,27.62
2022-07-26T20:36:17.322Z,27.63
2022-07-26T20:38:49.542Z,27.64
2022-07-26T20:41:18.763Z,27.62
2022-07-26T20:43:48.598Z,27.63
2022-07-26T20:46:15.979Z,27.63
2022-07-26T20:48:43.761Z,27.59
2022-07-26T20:51:13.254Z,27.61
2022-07-26T20:53:41.816Z,27.64
2022-07-26T20:56:10.500Z,27.68
2022-07-26T20:58:39.003Z,27.74
2022-07-26T21:01:06.399Z,27.80
2022-07-26T21:03:33.745Z,27.85
2022-07-26T21:06:01.051Z,27.84
2022-07-26T21:08:28.367Z,27.81
2022-07-26T21:10:55.490Z,27.81
2022-07-26T21:13:22.587Z,27.81
2022-07-26T21:15:51.477Z,27.83
2022-07-26T21:18:18.593Z,27.87
2022-07-26T21:20:46.106Z,27.91
2022-07-26T21:23:17.865Z,27.94
2022-07-26T21:25:45.764Z,27.99
2022-07-26T21:28:12.878Z,28.01
2022-07-26T21:30:40.269Z,28.00
2022-07-26T21:33:08.079Z,28.01
2022-07-26T21:35:35.383Z,28.00
2022-07-26T21:38:02.557Z,27.98
2022-07-26T21:40:29.850Z,27.93
2022-07-26T21:42:57.040Z,27.89
2022-07-26T21:45:24.102Z,27.88
2022-07-26T21:47:51.436Z,27.86
2022-07-26T21:50:18.548Z,27.86
2022-07-26T21:52:45.728Z,27.89
2022-07-26T21:55:15.462Z,27.86
2022-07-26T21:57:45.323Z,27.86
2022-07-26T22:00:15.170Z,27.88
2022-07-26T22:02:42.587Z,27.91
2022-07-26T22:05:28.528Z,27.91
2022-07-26T22:07:56.175Z,27.91
2022-07-26T22:10:23.615Z,27.93
2022-07-26T22:12:51.633Z,27.93
2022-07-26T22:15:19.069Z,27.95
2022-07-26T22:17:46.401Z,27.93
2022-07-26T22:20:13.642Z,27.90
2022-07-26T22:22:40.921Z,27.89
2022-07-26T22:25:08.657Z,27.90
2022-07-26T22:27:35.732Z,27.93
2022-07-26T22:30:03.071Z,27.94
2022-07-26T22:32:30.199Z,27.92
2022-07-26T22:34:57.310Z,27.90
2022-07-26T22:37:24.438Z,27.85
2022-07-26T22:39:51.534Z,27.80
2022-07-26T22:42:18.774Z,27.75
2022-07-26T22:44:45.883Z,27.67
2022-07-26T22:47:13.140Z,27.61
2022-07-26T22:49:40.264Z,27.59
2022-07-26T22:52:07.516Z,27.55
2022-07-26T22:54:34.608Z,27.51
2022-07-26T22:57:01.800Z,27.49
2022-07-26T22:59:28.932Z,27.49
2022-07-26T23:01:56.856Z,27.51
2022-07-26T23:04:24.035Z,27.55
2022-07-26T23:06:51.359Z,27.50
2022-07-26T23:09:22.059Z,27.47
2022-07-26T23:11:49.153Z,27.40
2022-07-26T23:14:16.227Z,27.36
2022-07-26T23:16:43.476Z,27.32
2022-07-26T23:19:11.619Z,27.29
2022-07-26T23:21:39.042Z,27.30
2022-07-26T23:24:06.573Z,27.29
2022-07-26T23:26:33.723Z,27.28
2022-07-26T23:29:00.939Z,27.31
2022-07-26T23:31:28.172Z,27.29
2022-07-26T23:33:55.221Z,27.29
2022-07-26T23:36:24.507Z,27.26
2022-07-26T23:38:51.864Z,27.23
2022-07-26T23:41:19.515Z,27.25
2022-07-26T23:43:46.616Z,27.24
2022-07-26T23:46:14.030Z,27.20
2022-07-26T23:48:41.190Z,27.14
2022-07-26T23:51:08.421Z,27.10
2022-07-26T23:53:35.715Z,27.05
2022-07-26T23:56:03.192Z,26.95
2022-07-26T23:58:30.498Z,26.90
